Time;durP1;ratioP1;P1;durP2;ratioP2;P2;SDS_P1;SDS_P2;PMS_P1;PMS_P2;Temp;Humidity;BMP_temperature;BMP_pressure;BME280_temperature;BME280_humidity;BME280_pressure;Samples;Min_cycle;Max_cycle;Signal;HPM_P1;HPM_P2
2022/07/05 00:01:21;;;;;;;4.40;4.10;;;18.50;96.40;;;;;;5120015;28;20444;-85
2022/07/05 00:17:34;;;;;;;6.00;5.60;;;18.20;98.40;;;;;;5124373;28;20449;-87
2022/07/05 00:23:32;;;;;;;6.77;6.10;;;18.10;98.80;;;;;;5121659;28;20424;-86
2022/07/05 00:26:07;;;;;;;5.87;5.47;;;17.90;99.40;;;;;;5104270;28;20904;-86
2022/07/05 00:28:37;;;;;;;6.07;5.57;;;17.70;99.90;;;;;;5109685;28;20450;-86
2022/07/05 00:31:31;;;;;;;5.70;5.30;;;17.70;99.90;;;;;;5100957;28;20558;-86
2022/07/05 00:34:13;;;;;;;7.40;5.53;;;17.60;99.90;;;;;;5086293;28;20477;-86
2022/07/05 00:40:35;;;;;;;5.50;4.60;;;17.80;99.90;;;;;;5101799;28;20964;-87
2022/07/05 01:03:38;;;;;;;4.37;4.17;;;17.60;99.90;;;;;;5105731;28;20415;-87
2022/07/05 01:53:36;;;;;;;3.47;3.20;;;16.80;99.90;;;;;;5109011;28;20407;-86
2022/07/05 01:56:29;;;;;;;5.57;3.80;;;16.80;99.90;;;;;;5121390;28;20481;-86
2022/07/05 01:59:19;;;;;;;4.63;4.23;;;16.90;99.90;;;;;;5103167;28;20445;-86
2022/07/05 02:02:01;;;;;;;3.70;3.40;;;16.90;99.90;;;;;;5121539;28;20448;-86
2022/07/05 02:21:29;;;;;;;4.30;4.00;;;16.80;99.90;;;;;;5121172;28;20419;-86
2022/07/05 02:30:32;;;;;;;5.23;3.10;;;16.60;99.90;;;;;;5119749;28;20476;-86
2022/07/05 02:38:49;;;;;;;5.50;2.90;;;16.60;99.90;;;;;;5114069;28;20516;-86
2022/07/05 02:44:15;;;;;;;4.27;3.97;;;16.70;99.90;;;;;;5108197;28;21059;-86
2022/07/05 02:46:51;;;;;;;9.07;3.23;;;16.60;99.90;;;;;;5119557;28;20452;-86
2022/07/05 02:49:57;;;;;;;4.30;3.90;;;16.70;99.90;;;;;;5119282;28;20444;-85
2022/07/05 02:52:42;;;;;;;3.60;3.40;;;16.60;99.90;;;;;;5120332;28;20527;-86
2022/07/05 03:02:16;;;;;;;5.47;4.30;;;16.60;99.90;;;;;;5120033;28;21186;-86
2022/07/05 03:04:48;;;;;;;4.20;3.90;;;16.50;99.90;;;;;;5102179;28;20876;-86
2022/07/05 03:07:24;;;;;;;5.50;3.77;;;16.50;99.90;;;;;;5118263;28;20452;-86
2022/07/05 03:36:44;;;;;;;5.17;4.77;;;16.00;99.90;;;;;;6261738;23;20436;-85
2022/07/05 05:19:42;;;;;;;2.33;2.17;;;16.40;99.90;;;;;;5086850;22;20489;-80
2022/07/05 05:22:11;;;;;;;1.97;1.87;;;16.60;99.90;;;;;;5076818;28;20871;-80
2022/07/05 05:24:52;;;;;;;2.40;1.80;;;16.70;99.90;;;;;;5056906;28;20901;-80
2022/07/05 05:27:24;;;;;;;1.80;1.70;;;16.80;99.90;;;;;;5071558;28;20568;-80
2022/07/05 05:30:21;;;;;;;2.10;2.00;;;16.90;99.90;;;;;;5077922;28;20881;-80
2022/07/05 05:32:57;;;;;;;2.20;2.00;;;16.90;99.90;;;;;;5058667;28;20458;-80
2022/07/05 05:39:36;;;;;;;1.93;1.83;;;17.10;99.90;;;;;;5037252;28;20450;-80
2022/07/05 06:11:28;;;;;;;1.83;1.73;;;18.10;97.90;;;;;;5062551;28;20501;-84
2022/07/05 06:14:12;;;;;;;3.00;2.00;;;18.30;97.20;;;;;;5056542;28;20534;-83
2022/07/05 06:19:49;;;;;;;2.00;1.60;;;18.50;96.70;;;;;;5043769;28;20485;-83
2022/07/05 06:25:10;;;;;;;2.50;1.73;;;18.60;96.20;;;;;;5049165;28;20511;-81
2022/07/05 06:27:48;;;;;;;1.60;1.43;;;18.70;96.40;;;;;;5039265;28;20970;-83
2022/07/05 06:30:56;;;;;;;1.70;1.60;;;18.80;95.80;;;;;;5057908;28;20468;-87
2022/07/05 06:40:05;;;;;;;1.77;1.67;;;19.00;95.50;;;;;;5098230;28;20409;-86
2022/07/05 06:42:40;;;;;;;2.40;1.90;;;19.10;95.20;;;;;;5087180;28;20454;-84
2022/07/05 06:45:42;;;;;;;2.23;2.00;;;19.30;94.90;;;;;;5097614;28;20443;-86
2022/07/05 06:48:49;;;;;;;3.20;2.10;;;19.30;94.60;;;;;;5101312;28;20454;-85
2022/07/05 06:51:45;;;;;;;2.07;1.90;;;19.50;94.50;;;;;;5087483;28;20506;-85
2022/07/05 06:54:48;;;;;;;1.77;1.53;;;19.50;93.80;;;;;;5083767;28;20440;-85
2022/07/05 07:00:20;;;;;;;2.40;2.20;;;19.70;92.60;;;;;;5079383;28;20969;-86
2022/07/05 07:02:50;;;;;;;1.90;1.80;;;19.80;92.90;;;;;;5083928;28;20478;-84
2022/07/05 07:37:21;;;;;;;1.40;1.30;;;20.50;90.00;;;;;;5831137;22;20940;-81
2022/07/05 07:40:20;;;;;;;2.00;1.60;;;20.60;90.50;;;;;;5042725;28;20979;-84
2022/07/05 07:45:36;;;;;;;2.43;1.97;;;20.80;89.00;;;;;;5044551;28;20443;-85
2022/07/05 07:50:54;;;;;;;1.40;1.30;;;20.90;90.00;;;;;;5024523;28;20513;-82
2022/07/05 07:53:22;;;;;;;1.47;1.37;;;21.00;89.40;;;;;;5041535;28;20464;-83
2022/07/05 07:55:49;;;;;;;3.53;1.70;;;21.10;88.00;;;;;;5049715;28;20476;-81
2022/07/05 07:58:16;;;;;;;1.87;1.73;;;21.20;88.50;;;;;;5038586;28;20480;-81
2022/07/05 08:00:46;;;;;;;2.00;1.30;;;21.30;90.50;;;;;;5036972;28;20460;-82
2022/07/05 08:03:13;;;;;;;2.57;1.67;;;21.40;88.00;;;;;;5041963;28;20451;-83
2022/07/05 08:05:48;;;;;;;1.67;1.30;;;21.40;89.10;;;;;;5042833;28;20484;-84
2022/07/05 08:08:26;;;;;;;2.90;2.70;;;21.50;88.10;;;;;;5042263;28;20475;-85
2022/07/05 08:10:53;;;;;;;1.70;1.60;;;21.50;87.50;;;;;;5040398;28;20465;-83
2022/07/05 08:13:20;;;;;;;2.33;1.70;;;21.60;86.40;;;;;;5038682;28;20478;-82
2022/07/05 08:15:46;;;;;;;1.83;1.73;;;21.70;88.90;;;;;;5036386;28;20500;-83
2022/07/05 08:23:43;;;;;;;1.60;1.50;;;21.80;87.30;;;;;;5037305;28;20431;-83
2022/07/05 08:26:10;;;;;;;3.67;1.80;;;21.90;86.50;;;;;;5036654;28;20450;-83
2022/07/05 08:28:36;;;;;;;2.80;1.57;;;22.00;87.20;;;;;;5037518;28;20462;-83
2022/07/05 08:31:03;;;;;;;2.17;1.67;;;22.20;85.00;;;;;;5037318;28;20460;-83
2022/07/05 08:33:30;;;;;;;1.30;1.30;;;22.10;84.50;;;;;;5037852;28;20461;-84
2022/07/05 08:36:01;;;;;;;4.00;3.00;;;22.10;85.80;;;;;;5037021;28;20488;-82
2022/07/05 08:38:28;;;;;;;3.10;2.30;;;22.20;85.00;;;;;;5028265;28;20464;-83
2022/07/05 08:41:02;;;;;;;4.00;1.80;;;22.20;84.50;;;;;;5035196;28;20454;-81
2022/07/05 08:46:12;;;;;;;1.60;1.50;;;22.40;84.30;;;;;;5037446;28;20492;-83
2022/07/05 08:48:43;;;;;;;1.70;1.60;;;22.40;83.20;;;;;;5036978;28;20454;-82
2022/07/05 08:51:12;;;;;;;4.93;1.57;;;22.50;83.50;;;;;;5038223;28;20468;-83
2022/07/05 08:53:41;;;;;;;2.20;1.50;;;22.60;85.20;;;;;;5038383;28;20446;-82
2022/07/05 08:56:12;;;;;;;3.00;1.53;;;22.70;84.50;;;;;;5037672;28;20449;-84
2022/07/05 08:58:39;;;;;;;2.33;2.23;;;22.70;84.50;;;;;;5037658;28;20464;-82
2022/07/05 09:01:07;;;;;;;2.77;1.80;;;22.80;83.70;;;;;;5038122;28;20449;-83
2022/07/05 09:03:38;;;;;;;2.50;2.30;;;22.90;84.60;;;;;;5038668;28;20968;-83
2022/07/05 09:06:09;;;;;;;2.00;1.73;;;23.10;84.20;;;;;;5037096;28;20522;-83
2022/07/05 09:08:42;;;;;;;2.17;1.97;;;23.10;79.20;;;;;;5038102;28;20473;-84
2022/07/05 09:11:13;;;;;;;2.20;1.60;;;23.10;81.10;;;;;;5038076;28;20480;-82
2022/07/05 09:13:52;;;;;;;3.33;3.10;;;23.20;77.60;;;;;;5036759;28;20460;-83
2022/07/05 09:16:19;;;;;;;2.03;1.53;;;23.20;78.40;;;;;;5037137;28;20476;-83
2022/07/05 09:18:47;;;;;;;1.43;1.40;;;23.30;78.30;;;;;;5038672;28;20453;-84
2022/07/05 09:21:19;;;;;;;3.50;1.53;;;23.40;80.70;;;;;;5037855;28;20449;-83
2022/07/05 09:23:53;;;;;;;1.90;1.70;;;23.50;76.40;;;;;;5039777;28;20456;-83
2022/07/05 09:26:21;;;;;;;2.20;1.73;;;23.60;75.90;;;;;;5018317;28;20531;-83
2022/07/05 09:28:57;;;;;;;2.43;1.63;;;23.60;73.90;;;;;;5022121;28;20461;-83
2022/07/05 09:31:33;;;;;;;1.37;1.27;;;23.70;74.60;;;;;;5033084;28;20481;-83
2022/07/05 09:34:08;;;;;;;1.43;1.30;;;23.80;74.70;;;;;;5038903;28;20450;-84
2022/07/05 09:37:11;;;;;;;1.70;1.30;;;23.90;71.00;;;;;;5039312;28;20460;-84
2022/07/05 09:39:42;;;;;;;1.93;1.40;;;23.90;71.50;;;;;;5037561;28;20547;-83
2022/07/05 09:42:20;;;;;;;1.70;1.47;;;24.10;75.10;;;;;;5038960;28;20449;-83
2022/07/05 09:44:51;;;;;;;1.10;1.00;;;24.20;72.30;;;;;;5039248;28;21044;-83
2022/07/05 09:47:19;;;;;;;1.53;1.00;;;24.40;71.40;;;;;;5038160;28;20505;-83
2022/07/05 09:49:48;;;;;;;3.23;1.50;;;24.60;70.20;;;;;;5038802;28;20459;-84
2022/07/05 09:52:29;;;;;;;1.23;1.20;;;24.60;67.60;;;;;;5036467;28;20954;-82
2022/07/05 09:55:03;;;;;;;2.37;2.27;;;24.50;62.50;;;;;;5035533;28;20554;-83
2022/07/05 09:57:40;;;;;;;1.73;1.63;;;24.40;59.90;;;;;;5036257;28;20474;-83
2022/07/05 10:00:20;;;;;;;1.80;1.67;;;24.60;61.30;;;;;;5037686;28;20484;-84
2022/07/05 10:02:48;;;;;;;1.30;1.30;;;24.70;64.00;;;;;;5036886;28;20455;-83
2022/07/05 10:05:17;;;;;;;1.90;1.80;;;24.80;67.90;;;;;;5035952;28;20488;-84
2022/07/05 10:07:45;;;;;;;1.60;1.50;;;24.80;67.80;;;;;;5020078;28;21052;-83
2022/07/05 10:10:14;;;;;;;1.83;1.67;;;24.90;68.70;;;;;;5034457;28;20459;-83
2022/07/05 10:12:42;;;;;;;2.30;2.20;;;25.10;69.20;;;;;;5032615;28;20464;-82
2022/07/05 10:15:11;;;;;;;1.73;1.63;;;25.10;68.40;;;;;;5034983;28;20460;-83
2022/07/05 10:17:41;;;;;;;2.20;1.90;;;24.90;67.10;;;;;;5037247;28;20484;-84
2022/07/05 10:20:15;;;;;;;1.80;1.70;;;25.00;66.10;;;;;;5036559;28;20446;-83
2022/07/05 10:22:42;;;;;;;1.87;1.23;;;25.00;64.60;;;;;;5036644;28;20454;-83
2022/07/05 10:25:09;;;;;;;1.27;1.17;;;25.00;64.60;;;;;;5036511;28;20459;-83
2022/07/05 10:27:38;;;;;;;3.13;1.80;;;25.00;63.30;;;;;;5034572;28;20474;-84
2022/07/05 10:30:15;;;;;;;1.80;1.70;;;25.20;64.70;;;;;;5036027;28;21038;-83
2022/07/05 10:32:42;;;;;;;1.37;1.27;;;25.30;60.10;;;;;;5035175;28;20555;-83
2022/07/05 10:35:11;;;;;;;1.87;1.77;;;25.30;58.80;;;;;;5036541;28;20456;-84
2022/07/05 10:37:38;;;;;;;2.03;1.83;;;25.50;60.80;;;;;;5036311;28;20476;-83
2022/07/05 10:40:12;;;;;;;1.57;1.47;;;25.60;59.80;;;;;;5035504;28;20450;-84
2022/07/05 10:46:28;;;;;;;1.57;1.50;;;25.60;59.90;;;;;;5037414;28;20837;-85
2022/07/05 11:12:39;;;;;;;2.63;1.40;;;27.80;54.60;;;;;;4960732;29;20476;-85
2022/07/05 11:21:26;;;;;;;1.97;1.87;;;28.40;52.80;;;;;;4957320;28;21042;-83
2022/07/05 11:24:50;;;;;;;1.43;1.33;;;28.80;52.50;;;;;;4973353;29;20448;-85
2022/07/05 11:28:14;;;;;;;2.13;1.90;;;29.10;51.80;;;;;;4965613;29;20453;-83
2022/07/05 11:31:10;;;;;;;1.83;1.73;;;29.00;50.80;;;;;;4973242;29;20466;-84
2022/07/05 11:33:44;;;;;;;2.70;1.77;;;29.00;50.70;;;;;;5034841;28;20459;-86
2022/07/05 11:36:34;;;;;;;4.90;2.10;;;29.00;50.60;;;;;;5043047;28;20453;-83
2022/07/05 11:42:07;;;;;;;3.70;1.93;;;28.90;49.20;;;;;;5042548;28;20444;-84
2022/07/05 11:44:45;;;;;;;1.93;1.60;;;29.10;51.30;;;;;;5054289;28;20456;-82
2022/07/05 11:47:28;;;;;;;1.73;1.20;;;29.40;51.40;;;;;;5054218;28;20508;-84
2022/07/05 11:50:02;;;;;;;1.23;1.23;;;30.10;49.10;;;;;;5057009;28;20425;-85
2022/07/05 11:53:31;;;;;;;1.57;1.47;;;30.80;48.40;;;;;;5053367;28;20452;-83
2022/07/05 11:56:23;;;;;;;1.30;1.20;;;31.40;49.50;;;;;;5009269;28;20478;-84
2022/07/05 11:59:27;;;;;;;3.80;1.63;;;31.40;46.90;;;;;;5040699;28;20440;-84
2022/07/05 12:02:43;;;;;;;1.80;1.70;;;31.30;46.40;;;;;;4935333;29;20567;-85
2022/07/05 12:05:52;;;;;;;1.80;1.70;;;31.00;46.70;;;;;;4938788;29;20497;-85
2022/07/05 12:08:27;;;;;;;1.90;1.57;;;30.80;47.90;;;;;;4940741;29;20476;-83
2022/07/05 12:13:46;;;;;;;1.80;1.70;;;31.30;45.80;;;;;;5037854;28;20869;-84
2022/07/05 12:16:13;;;;;;;1.87;1.67;;;30.40;45.40;;;;;;5036262;28;20934;-85
2022/07/05 12:18:55;;;;;;;2.20;1.53;;;29.50;46.80;;;;;;5044774;28;20428;-85
2022/07/05 12:21:24;;;;;;;2.10;1.90;;;28.90;47.90;;;;;;5047463;28;20455;-84
2022/07/05 12:23:51;;;;;;;1.57;1.47;;;28.40;49.40;;;;;;5048687;28;20453;-85
2022/07/05 12:26:21;;;;;;;1.63;1.53;;;28.10;50.70;;;;;;5042956;28;20480;-85
2022/07/05 12:28:48;;;;;;;2.13;1.63;;;28.70;50.20;;;;;;5043102;28;20461;-86
2022/07/05 12:31:17;;;;;;;1.80;1.70;;;29.30;49.60;;;;;;5043776;28;20456;-86
2022/07/05 12:33:43;;;;;;;3.60;1.73;;;30.10;48.30;;;;;;5050281;28;20451;-85
2022/07/05 12:36:12;;;;;;;4.20;2.23;;;30.70;47.80;;;;;;5044950;28;20465;-85
2022/07/05 12:38:43;;;;;;;1.57;1.47;;;31.20;46.40;;;;;;5041256;28;20496;-85
2022/07/05 12:41:11;;;;;;;1.97;1.67;;;31.20;45.60;;;;;;5042844;28;20449;-86
2022/07/05 12:43:52;;;;;;;2.53;1.93;;;31.40;44.70;;;;;;5044407;28;20473;-86
2022/07/05 12:46:19;;;;;;;1.43;1.33;;;31.20;45.60;;;;;;5045993;28;20499;-86
2022/07/05 12:48:52;;;;;;;5.60;1.90;;;31.80;45.30;;;;;;5045609;28;20457;-87
2022/07/05 12:51:33;;;;;;;1.77;1.67;;;32.10;45.00;;;;;;5048341;28;20969;-86
2022/07/05 12:59:36;;;;;;;2.97;1.50;;;33.10;42.80;;;;;;5040643;28;20449;-86
2022/07/05 13:02:04;;;;;;;3.40;2.10;;;33.80;44.30;;;;;;5045808;28;20491;-86
2022/07/05 13:04:31;;;;;;;1.87;1.77;;;34.70;43.50;;;;;;5038938;28;20456;-86
2022/07/05 13:06:59;;;;;;;1.60;1.50;;;35.80;41.70;;;;;;5046482;28;20495;-84
2022/07/05 13:09:36;;;;;;;1.60;1.50;;;36.40;38.50;;;;;;5043734;28;20457;-84
2022/07/05 13:12:08;;;;;;;1.77;1.57;;;36.60;38.30;;;;;;5039413;28;20480;-85
2022/07/05 13:14:35;;;;;;;2.00;1.60;;;35.90;38.70;;;;;;5040287;28;20453;-85
2022/07/05 13:17:02;;;;;;;3.33;2.00;;;35.20;38.90;;;;;;5039593;28;20470;-86
2022/07/05 13:19:29;;;;;;;1.60;1.50;;;33.80;39.70;;;;;;5039843;28;20457;-83
2022/07/05 13:21:56;;;;;;;2.27;2.00;;;33.40;40.90;;;;;;5038501;28;20977;-85
2022/07/05 13:24:22;;;;;;;1.57;1.40;;;32.80;41.00;;;;;;5041310;28;20817;-83
2022/07/05 13:26:51;;;;;;;2.40;1.70;;;32.30;41.20;;;;;;5042831;28;20485;-84
2022/07/05 13:29:17;;;;;;;1.60;1.50;;;32.10;42.90;;;;;;5037001;28;20453;-83
2022/07/05 13:31:44;;;;;;;2.83;1.73;;;32.60;42.00;;;;;;5040624;28;20453;-83
2022/07/05 13:34:13;;;;;;;1.83;1.70;;;32.80;41.20;;;;;;5044458;28;20452;-85
2022/07/05 13:36:40;;;;;;;2.73;1.90;;;32.40;42.40;;;;;;5046370;28;20469;-83
2022/07/05 13:39:07;;;;;;;2.83;1.83;;;31.80;42.40;;;;;;5044948;28;20461;-83
2022/07/05 13:41:33;;;;;;;1.90;1.80;;;30.90;42.70;;;;;;5042301;28;20449;-83
2022/07/05 13:44:01;;;;;;;1.87;1.77;;;29.80;43.90;;;;;;5037960;28;20463;-83
2022/07/05 13:46:28;;;;;;;1.80;1.70;;;29.40;45.70;;;;;;5037093;28;20477;-83
2022/07/05 13:48:55;;;;;;;2.03;1.93;;;29.00;45.70;;;;;;5040376;28;20454;-83
2022/07/05 13:51:22;;;;;;;1.80;1.70;;;29.30;47.80;;;;;;5043658;28;20452;-83
2022/07/05 13:53:48;;;;;;;1.60;1.50;;;30.30;45.50;;;;;;5042650;28;20495;-82
2022/07/05 13:56:15;;;;;;;4.13;1.90;;;31.60;43.80;;;;;;5046880;28;20450;-83
2022/07/05 13:58:42;;;;;;;1.77;1.67;;;32.50;43.10;;;;;;5041846;28;20448;-84
2022/07/05 14:01:10;;;;;;;2.07;1.50;;;33.20;42.10;;;;;;5042072;28;20471;-83
2022/07/05 14:03:37;;;;;;;6.10;2.60;;;33.40;42.30;;;;;;5042359;28;20453;-83
2022/07/05 14:06:04;;;;;;;1.60;1.50;;;33.30;40.40;;;;;;5042603;28;20441;-83
2022/07/05 14:08:31;;;;;;;2.13;1.60;;;33.50;40.90;;;;;;5039186;28;20472;-83
2022/07/05 14:10:58;;;;;;;1.60;1.50;;;34.00;40.10;;;;;;5048485;28;20441;-84
2022/07/05 14:13:27;;;;;;;1.93;1.73;;;34.20;39.70;;;;;;5048252;28;20752;-84
2022/07/05 14:15:54;;;;;;;3.20;1.63;;;33.70;39.40;;;;;;5041378;28;20465;-83
2022/07/05 14:18:24;;;;;;;2.13;1.80;;;33.30;39.70;;;;;;5034831;28;20990;-83
2022/07/05 14:20:51;;;;;;;3.67;2.83;;;32.50;39.70;;;;;;5038614;28;20489;-82
2022/07/05 14:23:18;;;;;;;1.60;1.50;;;32.00;40.10;;;;;;5043340;28;20565;-83
2022/07/05 14:25:45;;;;;;;2.17;2.00;;;32.40;41.80;;;;;;5047988;28;20459;-83
2022/07/05 14:28:12;;;;;;;2.43;2.23;;;33.20;41.10;;;;;;5049267;28;20556;-83
2022/07/05 14:30:40;;;;;;;1.80;1.70;;;34.20;40.90;;;;;;5052054;28;20501;-83
2022/07/05 14:33:07;;;;;;;1.57;1.47;;;35.40;39.90;;;;;;5052003;28;20453;-83
2022/07/05 14:35:35;;;;;;;2.10;2.00;;;36.60;38.50;;;;;;5047197;28;20477;-83
2022/07/05 14:38:03;;;;;;;1.70;1.60;;;37.20;34.80;;;;;;5045400;28;20466;-83
2022/07/05 14:40:30;;;;;;;1.60;1.50;;;36.40;35.00;;;;;;5042435;28;20454;-81
2022/07/05 14:42:58;;;;;;;1.83;1.73;;;36.10;36.20;;;;;;5043908;28;20457;-82
2022/07/05 14:45:26;;;;;;;3.27;2.27;;;36.00;35.10;;;;;;5042444;28;20544;-83
2022/07/05 14:47:53;;;;;;;1.60;1.50;;;35.60;35.80;;;;;;5043006;28;20493;-83
2022/07/05 14:50:20;;;;;;;2.73;1.93;;;35.00;35.70;;;;;;5043039;28;20460;-83
2022/07/05 14:52:49;;;;;;;2.00;1.60;;;35.10;36.10;;;;;;5043338;28;20455;-83
2022/07/05 14:55:17;;;;;;;1.47;1.47;;;35.40;36.60;;;;;;5042838;28;20937;-83
2022/07/05 14:57:44;;;;;;;2.50;2.30;;;35.30;36.00;;;;;;5046072;28;20475;-83
2022/07/05 15:00:13;;;;;;;2.13;2.03;;;34.70;35.40;;;;;;5068369;22;20553;-80
2022/07/05 15:02:40;;;;;;;2.53;1.67;;;34.60;35.90;;;;;;5049903;28;20449;-80
2022/07/05 15:05:09;;;;;;;2.10;1.60;;;35.00;36.40;;;;;;5052436;28;20444;-80
2022/07/05 15:07:36;;;;;;;2.70;1.67;;;34.60;35.70;;;;;;5051176;28;20658;-83
2022/07/05 15:10:06;;;;;;;1.70;1.60;;;34.00;36.70;;;;;;5036362;28;21037;-83
2022/07/05 15:12:33;;;;;;;1.60;1.53;;;34.00;37.40;;;;;;5030861;28;20453;-83
2022/07/05 15:15:00;;;;;;;1.90;1.80;;;33.80;37.20;;;;;;5046856;28;20453;-84
2022/07/05 15:17:27;;;;;;;2.10;1.90;;;34.00;37.10;;;;;;5047457;28;20456;-83
2022/07/05 15:19:55;;;;;;;1.67;1.47;;;33.90;36.80;;;;;;5025049;28;20462;-82
2022/07/05 15:22:21;;;;;;;1.57;1.47;;;33.90;37.30;;;;;;5027324;28;20489;-82
2022/07/05 15:24:48;;;;;;;1.50;1.40;;;34.30;36.70;;;;;;5044841;28;20517;-82
2022/07/05 15:27:17;;;;;;;1.37;1.27;;;34.80;36.70;;;;;;5038006;28;20489;-83
2022/07/05 15:29:44;;;;;;;1.73;1.63;;;35.60;36.40;;;;;;5037901;28;20457;-83
2022/07/05 15:32:11;;;;;;;2.20;1.70;;;36.80;36.20;;;;;;5038257;28;20631;-83
2022/07/05 15:34:37;;;;;;;1.30;1.20;;;37.80;32.50;;;;;;5038179;28;20457;-82
2022/07/05 15:37:05;;;;;;;2.13;2.00;;;38.60;32.80;;;;;;5040401;28;20455;-82
2022/07/05 15:39:32;;;;;;;1.83;1.73;;;38.90;31.90;;;;;;5040237;28;20449;-83
2022/07/05 15:42:01;;;;;;;1.80;1.70;;;38.20;30.40;;;;;;5036721;28;20501;-83
2022/07/05 15:44:29;;;;;;;2.20;1.47;;;37.80;31.70;;;;;;5038751;28;20942;-83
2022/07/05 15:47:03;;;;;;;3.03;1.70;;;36.10;31.20;;;;;;5047476;28;20468;-82
2022/07/05 15:49:31;;;;;;;1.77;1.67;;;35.40;33.70;;;;;;5018410;28;20450;-83
2022/07/05 15:51:59;;;;;;;5.27;2.00;;;34.80;33.90;;;;;;5039874;28;20552;-82
2022/07/05 15:54:26;;;;;;;2.00;1.90;;;34.20;34.80;;;;;;5040737;28;20441;-82
2022/07/05 15:56:53;;;;;;;1.63;1.53;;;33.60;35.10;;;;;;5038397;28;20484;-82
2022/07/05 15:59:20;;;;;;;1.80;1.70;;;33.40;35.30;;;;;;5042375;28;20984;-82
2022/07/05 16:01:48;;;;;;;1.70;1.60;;;33.50;36.00;;;;;;5040806;28;20484;-83
2022/07/05 16:04:15;;;;;;;1.60;1.50;;;34.20;35.00;;;;;;5044461;28;20470;-83
2022/07/05 16:06:42;;;;;;;1.80;1.70;;;34.70;34.10;;;;;;5041744;28;20816;-83
2022/07/05 16:09:08;;;;;;;2.17;2.07;;;35.00;34.30;;;;;;5045238;28;20541;-83
2022/07/05 16:11:35;;;;;;;2.00;1.80;;;36.00;34.20;;;;;;5051617;28;20977;-84
2022/07/05 16:14:02;;;;;;;1.77;1.67;;;36.80;33.70;;;;;;5048713;28;20812;-83
2022/07/05 16:16:29;;;;;;;1.40;1.40;;;37.70;31.90;;;;;;5048406;28;20461;-84
2022/07/05 16:18:59;;;;;;;1.63;1.40;;;37.10;30.60;;;;;;5043119;28;20954;-81
2022/07/05 16:21:26;;;;;;;1.80;1.67;;;36.90;31.30;;;;;;5041280;28;20488;-79
2022/07/05 16:23:53;;;;;;;1.70;1.60;;;36.60;32.70;;;;;;5042200;28;20559;-81
2022/07/05 16:26:21;;;;;;;1.93;1.63;;;36.90;31.50;;;;;;5041737;28;20461;-85
2022/07/05 16:28:48;;;;;;;1.53;1.30;;;36.60;30.90;;;;;;5042224;28;20584;-85
2022/07/05 16:31:15;;;;;;;1.93;1.83;;;36.70;32.30;;;;;;5044506;28;20473;-85
2022/07/05 16:33:43;;;;;;;1.77;1.67;;;36.10;32.30;;;;;;5040591;28;20611;-85
2022/07/05 16:36:13;;;;;;;1.67;1.57;;;35.90;32.00;;;;;;5049905;28;20978;-82
2022/07/05 16:38:41;;;;;;;3.17;1.70;;;36.10;31.80;;;;;;5042169;28;20667;-85
2022/07/05 16:41:15;;;;;;;2.30;1.40;;;35.70;32.30;;;;;;5045733;28;20469;-85
2022/07/05 16:43:43;;;;;;;2.60;1.77;;;35.90;32.00;;;;;;5047359;28;20543;-80
2022/07/05 16:46:11;;;;;;;2.00;1.87;;;35.50;31.60;;;;;;5041939;28;20553;-84
2022/07/05 16:48:38;;;;;;;1.57;1.47;;;35.30;32.80;;;;;;5042013;28;20480;-84
2022/07/05 16:51:05;;;;;;;1.90;1.73;;;36.30;34.00;;;;;;5042529;28;20480;-84
2022/07/05 16:53:35;;;;;;;1.33;1.10;;;36.80;31.50;;;;;;5045498;28;20460;-85
2022/07/05 16:56:03;;;;;;;2.60;1.60;;;36.30;30.70;;;;;;5044255;28;20449;-84
2022/07/05 16:58:35;;;;;;;1.13;1.10;;;35.40;30.60;;;;;;5041010;28;20445;-83
2022/07/05 17:01:02;;;;;;;1.93;1.40;;;35.00;31.40;;;;;;5041021;28;20481;-83
2022/07/05 17:03:29;;;;;;;1.50;1.40;;;34.80;31.80;;;;;;5042160;28;20465;-85
2022/07/05 17:05:56;;;;;;;1.73;1.60;;;33.80;31.80;;;;;;5044531;28;20442;-86
2022/07/05 17:08:23;;;;;;;1.73;1.63;;;33.30;33.00;;;;;;5045213;28;21052;-86
2022/07/05 17:10:51;;;;;;;1.73;1.63;;;32.70;33.80;;;;;;5045899;28;20472;-80
2022/07/05 17:13:17;;;;;;;3.03;1.60;;;32.30;35.00;;;;;;5028547;28;20452;-83
2022/07/05 17:15:44;;;;;;;1.60;1.50;;;31.70;35.00;;;;;;5032366;28;20445;-84
2022/07/05 17:18:11;;;;;;;0.90;0.90;;;31.50;36.00;;;;;;5040798;28;20452;-84
2022/07/05 17:20:40;;;;;;;1.60;1.50;;;31.70;35.40;;;;;;5040571;28;20988;-83
2022/07/05 17:23:07;;;;;;;2.00;1.50;;;31.90;36.60;;;;;;5047783;28;20519;-80
2022/07/05 17:25:33;;;;;;;2.60;1.60;;;32.00;35.00;;;;;;5049273;28;20458;-79
2022/07/05 17:28:02;;;;;;;1.50;1.43;;;31.50;35.50;;;;;;5041815;28;20493;-84
2022/07/05 17:30:29;;;;;;;3.13;1.40;;;30.60;36.00;;;;;;5040607;28;20560;-83
2022/07/05 17:32:55;;;;;;;1.90;1.80;;;30.10;36.90;;;;;;5040217;28;20528;-84
2022/07/05 17:35:22;;;;;;;1.60;1.50;;;29.60;37.10;;;;;;5040571;28;20453;-83
2022/07/05 17:37:49;;;;;;;2.43;1.67;;;29.60;36.90;;;;;;5040864;28;20453;-84
2022/07/05 17:40:16;;;;;;;1.50;1.40;;;29.20;37.70;;;;;;5040281;28;20471;-83
2022/07/05 17:42:42;;;;;;;1.50;1.40;;;29.20;38.20;;;;;;5040345;28;20453;-83
2022/07/05 17:45:11;;;;;;;1.47;1.40;;;29.20;37.80;;;;;;5041824;28;20461;-83
2022/07/05 17:47:37;;;;;;;1.37;1.27;;;29.10;36.80;;;;;;5040352;28;20485;-84
2022/07/05 17:50:05;;;;;;;1.20;1.10;;;29.20;36.40;;;;;;5038987;28;20458;-83
2022/07/05 17:52:32;;;;;;;3.23;1.30;;;29.30;36.50;;;;;;5039695;28;21062;-82
2022/07/05 17:54:58;;;;;;;1.67;1.57;;;29.70;37.10;;;;;;5038624;28;20462;-82
2022/07/05 17:57:25;;;;;;;1.50;1.40;;;29.70;36.80;;;;;;5040517;28;20955;-80
2022/07/05 17:59:52;;;;;;;1.53;1.43;;;29.90;37.00;;;;;;5042027;28;20455;-80
2022/07/05 18:02:20;;;;;;;1.93;1.83;;;29.70;37.00;;;;;;5040812;28;20450;-80
2022/07/05 18:04:47;;;;;;;2.83;1.40;;;29.80;37.10;;;;;;5044905;28;20462;-84
2022/07/05 18:07:13;;;;;;;1.20;1.20;;;30.00;37.20;;;;;;5044454;28;20459;-81
2022/07/05 18:09:40;;;;;;;1.60;1.50;;;29.90;36.80;;;;;;5032695;28;20455;-81
2022/07/05 18:12:08;;;;;;;2.57;1.70;;;29.90;36.70;;;;;;5030150;28;20857;-82
2022/07/05 18:14:35;;;;;;;1.57;1.47;;;30.00;36.90;;;;;;5023518;28;20772;-81
2022/07/05 18:17:01;;;;;;;2.20;1.67;;;30.40;36.90;;;;;;5035341;28;20518;-83
2022/07/05 18:19:29;;;;;;;2.40;1.70;;;30.70;37.20;;;;;;5037287;28;20451;-82
2022/07/05 18:21:56;;;;;;;2.07;1.97;;;30.50;36.30;;;;;;5038363;28;20479;-81
2022/07/05 18:24:24;;;;;;;1.40;1.30;;;30.30;36.80;;;;;;5039765;28;20453;-81
2022/07/05 18:26:52;;;;;;;1.30;1.17;;;30.80;37.50;;;;;;5040055;28;20812;-83
2022/07/05 18:29:18;;;;;;;2.50;1.80;;;30.50;36.70;;;;;;5040325;28;20482;-83
2022/07/05 18:31:45;;;;;;;1.80;1.70;;;29.90;37.70;;;;;;5039758;28;20483;-82
2022/07/05 18:34:12;;;;;;;2.00;1.90;;;29.60;38.40;;;;;;5038380;28;20467;-82
2022/07/05 18:36:40;;;;;;;1.93;1.83;;;29.50;38.40;;;;;;5041872;28;20455;-83
2022/07/05 18:39:07;;;;;;;1.80;1.70;;;29.50;38.70;;;;;;5040709;28;20446;-83
2022/07/05 18:41:34;;;;;;;2.63;2.10;;;29.30;39.10;;;;;;5038028;28;20464;-83
2022/07/05 18:44:00;;;;;;;3.50;1.87;;;29.10;39.10;;;;;;5039310;28;20453;-84
2022/07/05 18:46:29;;;;;;;3.53;1.70;;;29.20;40.10;;;;;;5039564;28;20460;-82
2022/07/05 18:48:56;;;;;;;1.93;1.83;;;28.70;40.30;;;;;;5037955;28;20566;-81
2022/07/05 18:51:23;;;;;;;1.60;1.50;;;28.40;40.40;;;;;;5038836;28;20469;-82
2022/07/05 18:53:51;;;;;;;3.73;1.57;;;28.40;41.20;;;;;;5038558;28;20463;-81
2022/07/05 18:56:18;;;;;;;2.30;1.70;;;28.40;41.60;;;;;;5038839;28;20461;-81
2022/07/05 18:58:45;;;;;;;1.97;1.87;;;28.40;41.80;;;;;;5040223;28;20459;-81
2022/07/05 19:01:12;;;;;;;3.10;2.17;;;28.50;41.90;;;;;;5034221;28;20485;-83
2022/07/05 19:03:39;;;;;;;1.93;1.83;;;28.10;42.00;;;;;;5029061;28;20461;-82
2022/07/05 19:14:20;;;;;;;2.80;2.60;;;26.90;44.00;;;;;;5038574;28;20487;-81
2022/07/05 19:16:47;;;;;;;2.80;1.50;;;26.60;44.20;;;;;;5038692;28;20459;-82
2022/07/05 19:19:14;;;;;;;1.67;1.57;;;26.00;45.00;;;;;;5038564;28;20467;-82
2022/07/05 19:21:40;;;;;;;1.57;1.47;;;25.50;46.40;;;;;;5039146;28;20486;-82
2022/07/05 19:24:10;;;;;;;2.27;2.00;;;25.30;47.00;;;;;;5050513;28;20813;-81
2022/07/05 19:26:37;;;;;;;2.47;1.90;;;24.90;47.50;;;;;;5046830;28;20438;-81
2022/07/05 19:29:04;;;;;;;2.63;1.97;;;24.80;48.00;;;;;;5045320;28;20543;-81
2022/07/05 19:31:31;;;;;;;3.00;2.30;;;24.70;48.60;;;;;;5044423;28;20837;-81
2022/07/05 19:34:01;;;;;;;1.83;1.73;;;24.60;49.60;;;;;;5043166;28;20993;-81
2022/07/05 19:36:27;;;;;;;2.67;2.20;;;24.50;48.30;;;;;;5040605;28;20445;-82
2022/07/05 19:38:54;;;;;;;1.60;1.50;;;24.20;48.40;;;;;;5039393;28;20461;-82
2022/07/05 19:41:22;;;;;;;1.57;1.47;;;24.10;49.50;;;;;;5039564;28;20469;-82
2022/07/05 19:43:49;;;;;;;1.90;1.73;;;23.80;49.30;;;;;;5042803;28;20453;-82
2022/07/05 19:46:16;;;;;;;1.97;1.87;;;23.80;49.90;;;;;;5042673;28;20453;-82
2022/07/05 19:48:48;;;;;;;5.37;2.20;;;23.70;50.20;;;;;;5046111;28;20484;-82
2022/07/05 19:51:16;;;;;;;3.53;2.17;;;23.60;50.80;;;;;;5042273;28;20469;-81
2022/07/05 19:53:43;;;;;;;2.40;2.20;;;23.50;50.80;;;;;;5033245;28;20457;-81